SAVV/VDM METAR and TAF weather

Enter ICAO airport designator
Station Type Date Time Source
SAVV METAR 2020/01/13 19:04 UTC NOAA

SAVV 131904Z 05007KT 020V150 6000 TSRA FEW025 FEW035CB BKN040 18/16 Q1010


Station Type Date Time Source
SAVV Decoded METAR 2020/01/13 19:04 UTC NOAA

Viedma Aerodrome, Argentina (SAVV) 40-51S 063-01W 7M
Jan 13, 2020 - 02:04 PM EST / 2020.01.13 1904 UTC
Wind: from the NE (050 degrees) at 8 MPH (7 KT) (direction variable):0
Visibility: 3 mile(s):0
Sky conditions: mostly cloudy
Weather: rain with thunder; Cumulonimbus clouds observed
Temperature: 64 F (18 C)
Dew Point: 60 F (16 C)
Relative Humidity: 88%
Pressure (altimeter): 29.83 in. Hg (1010 hPa)
ob: SAVV 131904Z 05007KT 020V150 6000 TSRA FEW025 FEW035CB BKN040 18/16 Q1010
cycle: 19

Station Type Date Time Source
SAVV TAF 2019/04/29 06:24 UTC NOAA

TAF TAF SAVV 290500Z 2906/3006 29015KT CAVOK TX18/2919Z TN07/3006Z
BECMG 2908/3010 25010KT
TEMPO 2914/2921 25020G30KT

Example: see airport list